Airfield :
LOGIN :

Register | Disclaimer

   EN    FR    IT 

 










Legend :    VFR   Marginal VFR   IFR   Intensive IFR   Very Intensive IFR
Visi :
Ceiling :
>= 8 km
>= 3000ft
5 to 8 km
1000 to 3000 ft
1500m to 5 km
500 to 1000 ft
800 to 1500m
200 to 500 ft
< 800m
< 200 ft
Symbols :   Thunderstorms  Fog  Heavy snow  Heavy precipitations  Wind > 20 kt
SIGMETs :     Misc.  Thunderstorms  Icing  Turbulence  Mountain Waves  Volcanic Ashes







- Airport Elevation : 1830 ft


EBLB - Butgenbach Elsenborn

CURRENT METAR :
  • 141441Z AUTO 23009KT 6000 -RASN OVC003/// M00/M00 Q0993 YLO

EXPIRED METARs :
  • 141425Z AUTO 23008KT 2800 -SN OVC003/// M00/M00 Q0993 YLO
  • 141355Z AUTO 24009KT 0800 SN OVC004/// 00/M00 Q0993 AMB
  • 141353Z AUTO 24009KT 1100 -SN OVC004/// 00/00 Q0993 AMB
  • 141255Z AUTO 24009KT 3100 -SN OVC003/// M00/M00 Q0993 YLO
  • 141236Z AUTO 25009KT 1500 -SN OVC004/// 00/00 Q0994 AMB
  • 141225Z AUTO 25008KT 0700 SN OVC003/// M00/M00 Q0994 RED
  • 141213Z AUTO 24010KT 0600 SN VV004/// 00/00 Q0994 RED
  • 141203Z AUTO 25010KT 0350 +SN OVC003/// 00/00 Q0994 RED

Expired Forecast.
No reported NOTAMs for that airfield.



MET'MAP, your aeronautical weather chart ! - Copyright ORBIFLY December 2007 - Disclaimer

ORBIFLY MET'MAP TEAM :

Programming & Development : Alexandra Zaïnal
Concept & Development : Baudouin d'Aumeries
Co-Development & Prog : Marc-Olivier Méhu
Technical & hardware support : Manuel Goepfert

Contact : metmap@orbifly.com




SOURCES & CREDITS :

   NOAA